Time;durP1;ratioP1;P1;durP2;ratioP2;P2;SDS_P1;SDS_P2;PMS_P1;PMS_P2;Temp;Humidity;BMP_temperature;BMP_pressure;BME280_temperature;BME280_humidity;BME280_pressure;Samples;Min_cycle;Max_cycle;Signal;HPM_P1;HPM_P2
2022/03/14 00:00:42;;;;;;;50.05;10.65;;;;;;;3.95;51.15;98060.69;4998930;28;20615;-54
2022/03/14 00:03:08;;;;;;;45.50;10.38;;;;;;;3.81;51.33;98065.16;5001915;28;20021;-52
2022/03/14 00:05:34;;;;;;;41.67;10.05;;;;;;;3.87;50.90;98067.66;5003675;28;20034;-53
2022/03/14 00:08:01;;;;;;;45.17;10.00;;;;;;;3.81;49.20;98063.44;5002563;28;20064;-52
2022/03/14 00:10:28;;;;;;;40.63;9.63;;;;;;;3.85;49.49;98069.41;4999949;28;20801;-53
2022/03/14 00:12:55;;;;;;;43.80;10.05;;;;;;;3.91;49.31;98074.50;5002572;28;20053;-53
2022/03/14 00:15:22;;;;;;;49.10;10.63;;;;;;;3.64;49.70;98075.72;4998602;28;20121;-53
2022/03/14 00:17:49;;;;;;;42.75;10.10;;;;;;;3.80;50.12;98084.94;5000575;28;20066;-52
2022/03/14 00:20:15;;;;;;;36.30;9.23;;;;;;;3.73;49.30;98085.91;5001755;28;20021;-54
2022/03/14 00:22:42;;;;;;;35.60;9.30;;;;;;;3.78;48.89;98083.25;4998928;28;20045;-53
2022/03/14 00:25:09;;;;;;;44.10;10.30;;;;;;;3.73;48.70;98095.34;5001876;28;20168;-54
2022/03/14 00:27:35;;;;;;;38.35;9.38;;;;;;;3.86;47.80;98097.78;5001930;28;20033;-53
2022/03/14 00:30:04;;;;;;;43.88;9.52;;;;;;;3.90;49.07;98108.91;5003568;28;20084;-55
2022/03/14 00:32:30;;;;;;;42.05;9.77;;;;;;;3.89;47.86;98107.19;5003006;28;20124;-59
2022/03/14 00:34:56;;;;;;;49.58;11.18;;;;;;;3.86;47.77;98120.16;5002109;28;20052;-54
2022/03/14 00:37:21;;;;;;;35.05;9.52;;;;;;;3.93;47.59;98124.34;4999368;28;20046;-54
2022/03/14 00:39:46;;;;;;;37.33;9.40;;;;;;;3.83;48.87;98109.88;5002350;28;20021;-55
2022/03/14 00:42:12;;;;;;;45.03;10.02;;;;;;;3.84;48.48;98134.78;4998994;28;20096;-54
2022/03/14 00:44:38;;;;;;;39.53;9.50;;;;;;;3.89;47.11;98127.00;5002652;28;20035;-54
2022/03/14 00:47:03;;;;;;;39.65;9.10;;;;;;;3.84;47.12;98125.34;4999943;28;20042;-55
2022/03/14 00:49:29;;;;;;;30.83;8.55;;;;;;;3.55;48.02;98130.81;5003054;28;20111;-54
2022/03/14 00:51:54;;;;;;;34.53;9.20;;;;;;;3.58;47.60;98124.75;4997571;28;20033;-54
2022/03/14 00:54:19;;;;;;;47.42;10.15;;;;;;;3.67;47.68;98130.66;5003375;28;20052;-53
2022/03/14 00:56:45;;;;;;;39.13;9.50;;;;;;;3.51;47.82;98136.91;4999031;28;20064;-54
2022/03/14 00:59:10;;;;;;;40.90;10.13;;;;;;;3.45;47.29;98132.63;5000394;28;20472;-54
2022/03/14 01:01:35;;;;;;;39.67;10.18;;;;;;;3.47;47.64;98135.19;5001917;28;20038;-54
2022/03/14 01:04:01;;;;;;;44.70;9.85;;;;;;;3.40;47.65;98138.69;5002038;28;20092;-53
2022/03/14 01:06:27;;;;;;;46.15;10.35;;;;;;;3.43;47.46;98133.53;4998906;28;20056;-52
2022/03/14 01:08:53;;;;;;;40.33;9.88;;;;;;;3.30;47.56;98147.41;5003203;28;20108;-52
2022/03/14 01:11:18;;;;;;;35.92;9.10;;;;;;;3.30;47.88;98144.84;5004718;28;20046;-52
2022/03/14 01:13:44;;;;;;;40.53;10.40;;;;;;;3.22;47.58;98153.50;5005854;28;20117;-54
2022/03/14 01:16:10;;;;;;;35.28;9.45;;;;;;;3.14;48.13;98144.09;5004132;28;20118;-53
2022/03/14 01:18:36;;;;;;;46.20;9.95;;;;;;;3.15;48.27;98144.09;5005336;28;20033;-53
2022/03/14 01:21:01;;;;;;;39.28;9.73;;;;;;;3.21;48.02;98146.63;5006696;28;20083;-53
2022/03/14 01:23:27;;;;;;;36.13;8.93;;;;;;;3.15;48.13;98149.25;5002948;28;20030;-53
2022/03/14 01:25:52;;;;;;;41.30;9.90;;;;;;;3.11;47.81;98147.59;5001776;28;20372;-53
2022/03/14 01:28:17;;;;;;;39.53;9.63;;;;;;;3.14;47.94;98147.53;5004790;28;20034;-53
2022/03/14 01:30:44;;;;;;;37.03;9.35;;;;;;;3.17;47.98;98150.09;5000685;28;20499;-53
2022/03/14 01:33:10;;;;;;;39.00;9.27;;;;;;;3.02;48.13;98160.53;5006072;28;20030;-54
2022/03/14 01:35:36;;;;;;;38.45;9.82;;;;;;;3.12;48.13;98153.59;5000838;28;20037;-54
2022/03/14 01:38:02;;;;;;;32.08;9.30;;;;;;;2.92;48.00;98159.75;5002510;28;20024;-53
2022/03/14 01:40:28;;;;;;;37.05;9.25;;;;;;;2.92;48.36;98151.16;5005913;28;20041;-53
2022/03/14 01:42:53;;;;;;;43.13;9.77;;;;;;;2.94;48.23;98159.75;5001506;28;20817;-52
2022/03/14 01:45:19;;;;;;;41.25;9.98;;;;;;;2.95;48.17;98162.31;5000663;28;20478;-54
2022/03/14 01:47:45;;;;;;;49.10;10.15;;;;;;;2.99;48.12;98163.13;5005672;28;20022;-55
2022/03/14 01:50:12;;;;;;;38.17;9.73;;;;;;;2.99;48.29;98168.28;5002766;28;20026;-53
2022/03/14 01:52:38;;;;;;;45.17;9.85;;;;;;;2.86;48.23;98167.53;5004905;28;20033;-52
2022/03/14 01:55:05;;;;;;;48.85;10.70;;;;;;;2.88;48.07;98171.78;5001759;28;20021;-53
2022/03/14 01:57:32;;;;;;;36.65;9.55;;;;;;;2.94;48.34;98170.03;5004119;28;20041;-53
2022/03/14 01:59:58;;;;;;;45.85;9.85;;;;;;;2.86;48.48;98173.53;5004704;28;20030;-53
2022/03/14 02:02:24;;;;;;;43.05;9.82;;;;;;;2.77;48.27;98181.31;5005014;28;20041;-53
2022/03/14 02:04:49;;;;;;;56.50;10.90;;;;;;;2.93;48.34;98189.81;5003667;28;20812;-53
2022/03/14 02:07:14;;;;;;;41.17;9.30;;;;;;;2.86;48.29;98194.13;5003510;28;20042;-53
2022/03/14 02:09:40;;;;;;;41.17;9.65;;;;;;;2.90;48.01;98205.28;5007155;28;20029;-52
2022/03/14 02:12:08;;;;;;;47.67;10.00;;;;;;;2.78;48.50;98201.09;5015382;28;20746;-52
2022/03/14 02:14:39;;;;;;;39.40;9.98;;;;;;;2.79;48.79;98199.34;5002013;28;20026;-53
2022/03/14 02:17:16;;;;;;;47.97;10.40;;;;;;;2.72;48.78;98203.72;4995004;28;20022;-53
2022/03/14 02:19:42;;;;;;;37.90;9.77;;;;;;;2.67;48.95;98213.19;5003857;28;20034;-53
2022/03/14 02:22:12;;;;;;;42.28;9.80;;;;;;;2.68;48.88;98220.91;4998101;28;20575;-52
2022/03/14 02:24:39;;;;;;;37.30;10.00;;;;;;;2.76;48.84;98215.69;4998247;28;20060;-53
2022/03/14 02:27:04;;;;;;;35.88;9.23;;;;;;;2.95;48.74;98228.47;5002626;28;20565;-52
2022/03/14 02:29:30;;;;;;;40.72;9.95;;;;;;;2.69;48.78;98238.06;5003626;28;20499;-52
2022/03/14 02:31:56;;;;;;;40.50;9.93;;;;;;;2.67;48.66;98229.47;5002998;28;20048;-53
2022/03/14 02:34:21;;;;;;;47.45;10.55;;;;;;;2.63;48.73;98242.41;5002345;28;20029;-53
2022/03/14 02:36:47;;;;;;;37.28;9.45;;;;;;;2.63;49.17;98234.66;5003694;28;20558;-54
2022/03/14 02:39:12;;;;;;;40.88;9.82;;;;;;;2.48;49.51;98241.59;5002242;28;20068;-54
2022/03/14 02:41:38;;;;;;;34.00;9.00;;;;;;;2.50;49.32;98247.59;5003785;28;20855;-53
2022/03/14 02:44:06;;;;;;;41.15;10.05;;;;;;;2.54;49.04;98247.56;5006114;28;20025;-54
2022/03/14 02:46:39;;;;;;;39.30;10.00;;;;;;;2.67;49.13;98259.53;5001450;28;20056;-53
2022/03/14 02:49:05;;;;;;;38.90;10.07;;;;;;;2.62;49.16;98262.13;5002223;28;20064;-53
2022/03/14 02:51:31;;;;;;;48.53;10.65;;;;;;;2.58;49.27;98262.16;5002893;28;20041;-52
2022/03/14 02:53:57;;;;;;;42.60;10.23;;;;;;;2.54;49.24;98266.47;5001646;28;20037;-53
2022/03/14 02:56:23;;;;;;;37.65;9.65;;;;;;;2.47;49.82;98272.50;5000545;28;20046;-53
2022/03/14 02:58:51;;;;;;;42.17;9.82;;;;;;;2.35;50.47;98278.53;5005881;28;20439;-52
2022/03/14 03:01:17;;;;;;;39.10;9.57;;;;;;;2.16;50.79;98282.06;5002547;28;20045;-53
2022/03/14 03:03:43;;;;;;;41.35;9.88;;;;;;;2.09;50.42;98297.47;5003509;28;20030;-53
2022/03/14 03:06:11;;;;;;;39.85;10.05;;;;;;;2.18;50.81;98303.50;5003318;28;20030;-53
2022/03/14 03:08:37;;;;;;;42.70;10.13;;;;;;;2.28;52.04;98313.75;5003933;28;20041;-53
2022/03/14 03:11:04;;;;;;;35.47;6.95;;;;;;;2.28;54.99;98318.06;5003413;28;20026;-54
2022/03/14 03:13:29;;;;;;;33.85;7.88;;;;;;;2.36;69.81;98321.44;5004426;28;20025;-53
2022/03/14 03:15:54;;;;;;;43.50;10.55;;;;;;;2.00;65.24;98328.38;5002085;28;20115;-52
2022/03/14 03:18:20;;;;;;;40.90;9.20;;;;;;;1.41;63.51;98337.81;5003041;28;20029;-53
2022/03/14 03:20:45;;;;;;;43.47;9.48;;;;;;;1.32;64.65;98338.69;5000530;28;20053;-54
2022/03/14 03:23:10;;;;;;;36.45;9.02;;;;;;;1.42;64.26;98351.56;5000677;28;20045;-53
2022/03/14 03:25:36;;;;;;;37.50;9.10;;;;;;;1.57;64.07;98356.69;4998305;28;20038;-53
2022/03/14 03:28:01;;;;;;;34.55;8.13;;;;;;;1.59;66.35;98372.13;5004124;28;20400;-54
2022/03/14 03:30:27;;;;;;;32.72;8.38;;;;;;;1.17;64.51;98371.22;5000581;28;20033;-53
2022/03/14 03:32:52;;;;;;;44.22;9.88;;;;;;;1.32;65.84;98384.97;5000928;28;20114;-54
2022/03/14 03:35:18;;;;;;;41.55;9.60;;;;;;;1.11;69.47;98383.19;5001714;28;20026;-53
2022/03/14 03:37:43;;;;;;;39.63;8.93;;;;;;;1.16;70.26;98380.63;5005794;28;20026;-53
2022/03/14 03:40:09;;;;;;;45.88;9.70;;;;;;;1.34;68.98;98396.09;5003749;28;20535;-54
2022/03/14 03:42:34;;;;;;;37.10;8.73;;;;;;;1.01;70.26;98393.41;5001307;28;20034;-53
2022/03/14 03:45:00;;;;;;;55.78;10.95;;;;;;;0.73;75.31;98403.56;5004306;28;20022;-53
2022/03/14 03:47:25;;;;;;;43.85;9.27;;;;;;;0.91;73.96;98408.78;5000264;28;20088;-53
2022/03/14 03:49:51;;;;;;;49.63;10.18;;;;;;;0.86;72.13;98409.63;5001132;28;20058;-51
2022/03/14 03:52:16;;;;;;;31.63;8.63;;;;;;;1.28;71.98;98419.19;5004578;28;20111;-52
2022/03/14 03:54:42;;;;;;;46.50;9.80;;;;;;;1.09;70.08;98417.44;4999820;28;20079;-53
2022/03/14 03:57:07;;;;;;;48.30;10.45;;;;;;;1.12;70.09;98432.84;5002079;28;20038;-52
2022/03/14 03:59:32;;;;;;;42.13;10.30;;;;;;;1.31;69.07;98434.63;5001875;28;21010;-53
2022/03/14 04:01:58;;;;;;;41.50;9.43;;;;;;;0.84;71.49;98442.16;5002095;28;20152;-53
2022/03/14 04:04:26;;;;;;;45.05;9.80;;;;;;;1.09;71.84;98453.41;5000904;28;20058;-53
2022/03/14 04:06:54;;;;;;;40.53;8.40;;;;;;;1.40;73.04;98454.38;5001024;28;20574;-53
2022/03/14 04:09:20;;;;;;;41.58;10.13;;;;;;;0.78;74.05;98455.81;5001291;28;20650;-53
2022/03/14 04:11:45;;;;;;;40.45;8.77;;;;;;;1.20;75.42;98464.56;5000130;28;20642;-54
2022/03/14 04:14:11;;;;;;;44.55;9.57;;;;;;;0.89;83.06;98472.13;5002525;28;20647;-53
2022/03/14 04:16:37;;;;;;;40.60;9.68;;;;;;;0.82;82.21;98470.38;5000700;28;20040;-54
2022/03/14 04:19:02;;;;;;;38.88;9.13;;;;;;;1.40;77.37;98464.66;5000155;28;20054;-55
2022/03/14 04:21:28;;;;;;;40.47;8.52;;;;;;;1.89;73.78;98469.03;5002560;28;20047;-54
2022/03/14 04:23:53;;;;;;;37.42;9.00;;;;;;;1.55;73.55;98468.97;5002497;28;20716;-54
2022/03/14 04:26:19;;;;;;;42.60;9.68;;;;;;;1.88;74.58;98475.06;4999144;28;20360;-53
2022/03/14 04:28:44;;;;;;;42.38;9.60;;;;;;;1.64;75.48;98483.59;5003152;28;20064;-54
2022/03/14 04:31:10;;;;;;;38.72;9.20;;;;;;;1.30;76.92;98484.31;5001697;28;20156;-55
2022/03/14 04:33:36;;;;;;;45.47;10.07;;;;;;;1.63;74.76;98490.41;5000533;28;20017;-54
2022/03/14 04:36:02;;;;;;;42.88;10.27;;;;;;;1.31;76.00;98500.59;5001864;28;20040;-54
2022/03/14 04:38:28;;;;;;;41.88;10.60;;;;;;;1.51;78.58;98510.97;5004186;28;20029;-54
2022/03/14 04:40:54;;;;;;;36.80;9.02;;;;;;;1.27;86.42;98510.00;5006453;28;20111;-54
2022/03/14 04:43:24;;;;;;;42.67;10.45;;;;;;;1.46;79.94;98515.22;4999279;28;20037;-54
2022/03/14 04:45:50;;;;;;;44.10;9.27;;;;;;;1.69;76.25;98516.16;5002237;28;20030;-54
2022/03/14 04:48:16;;;;;;;49.67;10.70;;;;;;;1.24;83.10;98515.13;4999997;28;20033;-53
2022/03/14 04:50:42;;;;;;;41.05;10.05;;;;;;;1.27;87.29;98507.44;5003744;28;20033;-54
2022/03/14 04:53:09;;;;;;;44.63;10.40;;;;;;;1.06;92.11;98502.19;5008450;28;20104;-55
2022/03/14 04:55:35;;;;;;;36.67;9.30;;;;;;;1.07;94.71;98506.50;5004978;28;20048;-53
2022/03/14 04:58:04;;;;;;;41.80;10.82;;;;;;;1.26;93.08;98503.13;5008343;28;20026;-54
2022/03/14 05:00:32;;;;;;;42.28;10.38;;;;;;;1.47;90.98;98512.66;5007445;28;20033;-53
2022/03/14 05:03:05;;;;;;;36.70;8.50;;;;;;;1.69;95.22;98513.59;5006013;28;20140;-55
2022/03/14 05:05:30;;;;;;;37.17;9.43;;;;;;;1.70;84.50;98514.44;5001564;28;20144;-54
2022/03/14 05:07:56;;;;;;;42.92;11.00;;;;;;;1.66;83.12;98523.84;5006100;28;20042;-54
2022/03/14 05:10:22;;;;;;;41.60;10.40;;;;;;;1.95;76.51;98525.66;5004090;28;20578;-54
2022/03/14 05:12:48;;;;;;;43.50;10.68;;;;;;;2.08;72.72;98527.38;5004929;28;20029;-54
2022/03/14 05:15:17;;;;;;;44.58;11.00;;;;;;;1.92;73.36;98535.94;5004835;28;20037;-57
2022/03/14 05:17:44;;;;;;;35.78;10.20;;;;;;;2.33;69.73;98548.00;5005791;28;20542;-53
2022/03/14 05:20:10;;;;;;;39.00;9.80;;;;;;;1.87;73.76;98537.63;5004698;28;20087;-53
2022/03/14 05:22:48;;;;;;;31.33;9.25;;;;;;;2.40;70.79;98534.28;5003840;28;20026;-54
2022/03/14 05:25:14;;;;;;;40.08;10.52;;;;;;;1.46;78.39;98546.06;5004454;28;20410;-55
2022/03/14 05:27:40;;;;;;;55.40;10.52;;;;;;;1.85;84.96;98539.34;5002986;28;20022;-53
2022/03/14 05:30:08;;;;;;;46.05;10.70;;;;;;;2.02;75.13;98541.94;5004596;28;20029;-53
2022/03/14 05:32:39;;;;;;;41.90;10.02;;;;;;;2.06;71.60;98543.66;5008117;28;20018;-53
2022/03/14 05:35:05;;;;;;;38.95;10.43;;;;;;;2.16;67.29;98544.56;5006759;28;20056;-53
2022/03/14 05:37:31;;;;;;;42.25;10.90;;;;;;;2.16;66.32;98549.72;4999347;28;20454;-54
2022/03/14 05:39:56;;;;;;;44.28;10.88;;;;;;;2.18;65.22;98571.16;5002945;28;20061;-53
2022/03/14 05:42:22;;;;;;;42.42;9.95;;;;;;;2.35;64.86;98582.31;5004649;28;20096;-53
2022/03/14 05:44:47;;;;;;;58.20;11.68;;;;;;;2.40;63.48;98584.91;5005221;28;20037;-54
2022/03/14 05:47:13;;;;;;;41.53;10.13;;;;;;;2.53;63.27;98599.50;5004741;28;20033;-55
2022/03/14 05:49:38;;;;;;;46.83;10.82;;;;;;;2.23;66.29;98615.78;5001206;28;20087;-54
2022/03/14 05:52:06;;;;;;;47.95;11.15;;;;;;;2.29;66.48;98608.06;5001506;28;20063;-54
2022/03/14 05:54:34;;;;;;;39.13;9.93;;;;;;;2.30;66.99;98617.53;5002130;28;20037;-54
2022/03/14 05:56:59;;;;;;;43.85;10.18;;;;;;;2.79;65.40;98643.31;4999969;28;20563;-54
2022/03/14 05:59:25;;;;;;;43.50;10.63;;;;;;;2.48;66.35;98634.69;5001323;28;20029;-54
2022/03/14 06:01:50;;;;;;;43.53;10.43;;;;;;;2.47;68.34;98643.28;5000333;28;20044;-54
2022/03/14 06:04:16;;;;;;;38.38;9.93;;;;;;;2.60;66.20;98644.16;5005918;28;20465;-55
2022/03/14 06:06:42;;;;;;;46.13;9.95;;;;;;;2.65;65.56;98658.78;5001968;28;20037;-55
2022/03/14 06:09:07;;;;;;;37.22;10.30;;;;;;;2.41;68.94;98659.59;5003931;28;20041;-55
2022/03/14 06:11:33;;;;;;;43.90;11.88;;;;;;;2.47;70.31;98659.59;5000878;28;20049;-53
2022/03/14 06:13:58;;;;;;;43.28;10.98;;;;;;;2.43;71.42;98667.31;5002117;28;20129;-54
2022/03/14 06:16:25;;;;;;;50.10;11.90;;;;;;;2.71;71.84;98668.22;5002072;28;20049;-54
2022/03/14 06:18:50;;;;;;;43.88;10.60;;;;;;;2.80;71.55;98685.41;5004321;28;20026;-54
2022/03/14 06:21:16;;;;;;;45.05;10.30;;;;;;;2.87;68.75;98695.72;5005558;28;20577;-54
2022/03/14 06:23:42;;;;;;;39.08;8.27;;;;;;;2.97;71.25;98711.19;4999819;28;20018;-54
2022/03/14 06:26:07;;;;;;;37.47;9.88;;;;;;;2.65;67.72;98702.56;4997380;28;20681;-54
2022/03/14 06:28:32;;;;;;;46.42;11.15;;;;;;;3.10;65.67;98707.75;5001147;28;20038;-54
2022/03/14 06:30:58;;;;;;;38.80;10.05;;;;;;;3.18;66.37;98715.47;5000803;28;20030;-54
2022/03/14 06:33:23;;;;;;;37.95;10.52;;;;;;;3.03;66.74;98726.66;5006148;28;20049;-53
2022/03/14 06:35:49;;;;;;;43.90;10.57;;;;;;;3.50;66.07;98720.63;5001449;28;20033;-55
2022/03/14 06:38:15;;;;;;;40.75;10.45;;;;;;;3.15;67.29;98734.41;5001662;28;20105;-54
2022/03/14 06:40:41;;;;;;;50.97;11.77;;;;;;;3.08;67.25;98727.53;4998759;28;20808;-54
2022/03/14 06:43:07;;;;;;;35.75;9.98;;;;;;;3.48;65.83;98740.41;5004567;28;20543;-54
2022/03/14 06:45:34;;;;;;;40.15;10.65;;;;;;;3.05;67.80;98741.28;5004443;28;20045;-54
2022/03/14 06:48:00;;;;;;;39.40;10.75;;;;;;;3.12;69.34;98742.13;5002776;28;20037;-55
2022/03/14 06:50:25;;;;;;;44.33;10.73;;;;;;;3.38;67.00;98749.91;5003919;28;20384;-54
2022/03/14 06:52:51;;;;;;;42.58;10.98;;;;;;;3.10;66.59;98743.84;5004563;28;20025;-55
2022/03/14 06:55:17;;;;;;;52.42;10.80;;;;;;;3.41;70.11;98751.59;5003490;28;20079;-54
2022/03/14 06:57:42;;;;;;;36.08;10.38;;;;;;;3.13;67.01;98758.47;5001914;28;20559;-53
2022/03/14 07:00:08;;;;;;;42.40;10.68;;;;;;;3.44;69.14;98759.34;5003079;28;20026;-55
2022/03/14 07:02:37;;;;;;;43.78;10.75;;;;;;;3.60;68.99;98761.06;5000833;28;20092;-54
2022/03/14 07:05:03;;;;;;;49.13;11.20;;;;;;;3.40;74.70;98762.75;5002976;28;20117;-55
2022/03/14 07:07:28;;;;;;;38.28;9.80;;;;;;;3.43;76.62;98767.94;5001481;28;20049;-54
2022/03/14 07:09:54;;;;;;;45.58;10.82;;;;;;;3.53;77.26;98777.41;5007585;28;20053;-53
2022/03/14 07:12:19;;;;;;;40.97;11.32;;;;;;;3.80;82.80;98775.63;5000796;28;20041;-55
2022/03/14 07:14:45;;;;;;;55.13;12.27;;;;;;;3.79;80.08;98781.69;5001631;28;20049;-53
2022/03/14 07:17:10;;;;;;;45.55;11.10;;;;;;;3.91;79.52;98786.81;5002847;28;20037;-55
2022/03/14 07:19:36;;;;;;;38.45;10.80;;;;;;;3.72;80.80;98805.78;5001844;28;20101;-54
2022/03/14 07:22:03;;;;;;;42.95;11.73;;;;;;;4.09;78.48;98800.56;4999683;28;20451;-54
2022/03/14 07:24:28;;;;;;;43.97;11.52;;;;;;;3.50;89.34;98805.75;5000925;28;20052;-53
2022/03/14 07:26:54;;;;;;;35.08;10.50;;;;;;;3.65;100.00;98815.22;4997781;28;20120;-54
2022/03/14 07:29:20;;;;;;;47.25;11.73;;;;;;;3.98;100.00;98827.22;5003730;28;20044;-55
2022/03/14 07:31:45;;;;;;;38.80;11.35;;;;;;;4.02;100.00;98831.53;4998789;28;20825;-54
2022/03/14 07:34:11;;;;;;;44.95;12.70;;;;;;;3.92;100.00;98835.00;5001420;28;20029;-55
2022/03/14 07:36:37;;;;;;;47.20;12.18;;;;;;;3.57;100.00;98833.28;4999145;28;20046;-55
2022/03/14 07:39:04;;;;;;;45.42;12.48;;;;;;;3.39;100.00;98830.69;5001285;28;20025;-54
2022/03/14 07:41:29;;;;;;;43.97;12.70;;;;;;;3.03;100.00;98829.75;5001492;28;20037;-54
2022/03/14 07:43:55;;;;;;;50.20;13.25;;;;;;;4.01;100.00;98834.13;5000370;28;20026;-55
2022/03/14 07:46:21;;;;;;;42.80;12.23;;;;;;;3.96;100.00;98836.72;4998137;28;20096;-54
2022/03/14 07:48:46;;;;;;;43.33;12.73;;;;;;;3.56;100.00;98841.88;4998523;28;20023;-55
2022/03/14 07:51:11;;;;;;;35.88;11.50;;;;;;;4.02;100.00;98844.44;5004333;28;20037;-55
2022/03/14 07:53:37;;;;;;;57.75;14.18;;;;;;;4.11;100.00;98830.66;5001737;28;20088;-55
2022/03/14 07:56:02;;;;;;;46.40;12.70;;;;;;;4.13;100.00;98838.41;5001490;28;20041;-55
2022/03/14 07:58:28;;;;;;;43.88;12.32;;;;;;;4.07;100.00;98843.59;5003091;28;20041;-55
2022/03/14 08:00:54;;;;;;;49.80;12.70;;;;;;;4.03;100.00;98847.91;5002407;28;20061;-55
2022/03/14 08:03:20;;;;;;;46.33;12.57;;;;;;;4.30;100.00;98841.84;5001475;28;20033;-54
2022/03/14 08:05:47;;;;;;;46.67;13.55;;;;;;;4.07;100.00;98838.44;4997108;28;20033;-53
2022/03/14 08:08:15;;;;;;;47.63;13.45;;;;;;;4.28;100.00;98835.78;5002264;28;20033;-55
2022/03/14 08:10:41;;;;;;;49.60;14.00;;;;;;;4.16;100.00;98841.00;5002788;28;20061;-55
2022/03/14 08:13:06;;;;;;;47.55;13.80;;;;;;;4.67;100.00;98852.06;5003406;28;20768;-54
2022/03/14 08:15:33;;;;;;;45.85;13.85;;;;;;;4.93;100.00;98858.84;5003597;28;20025;-54
2022/03/14 08:18:02;;;;;;;48.20;13.45;;;;;;;5.14;100.00;98858.72;5001935;28;20439;-54
2022/03/14 08:20:27;;;;;;;46.78;13.23;;;;;;;5.33;100.00;98868.97;4999877;28;20506;-55
2022/03/14 08:22:58;;;;;;;51.97;14.48;;;;;;;5.27;100.00;98874.19;5002734;28;20036;-55
2022/03/14 08:25:24;;;;;;;43.70;13.95;;;;;;;5.20;100.00;98876.81;4999969;28;20034;-53
2022/03/14 08:27:50;;;;;;;46.53;14.70;;;;;;;5.38;100.00;98882.72;5001995;28;20029;-55
2022/03/14 08:30:16;;;;;;;42.25;13.45;;;;;;;5.31;100.00;98881.03;5003157;28;20021;-54
2022/03/14 08:32:42;;;;;;;46.63;14.48;;;;;;;5.39;100.00;98874.97;5002270;28;20025;-54
2022/03/14 08:35:09;;;;;;;46.33;14.63;;;;;;;5.27;100.00;98884.53;5001697;28;20453;-54
2022/03/14 08:37:42;;;;;;;39.85;13.45;;;;;;;5.63;100.00;98882.59;4998699;28;20034;-54
2022/03/14 08:40:10;;;;;;;39.10;14.15;;;;;;;6.01;100.00;98878.84;4997856;28;20072;-55
2022/03/14 08:42:36;;;;;;;47.83;14.35;;;;;;;6.28;100.00;98881.19;5000989;28;20080;-54
2022/03/14 08:45:02;;;;;;;61.42;16.15;;;;;;;6.78;100.00;98888.47;4998952;28;20060;-54
2022/03/14 08:47:28;;;;;;;43.20;14.30;;;;;;;6.99;100.00;98888.22;4998140;28;20580;-56
2022/03/14 08:49:53;;;;;;;51.80;14.95;;;;;;;6.96;100.00;98890.84;4998098;28;20025;-54
2022/03/14 08:52:19;;;;;;;49.92;14.70;;;;;;;7.47;100.00;98885.00;5002148;28;20041;-54
2022/03/14 08:54:44;;;;;;;53.65;15.38;;;;;;;7.86;100.00;98893.91;5002202;28;20084;-54
2022/03/14 08:57:10;;;;;;;48.58;15.15;;;;;;;7.93;100.00;98899.88;4997195;28;20117;-54
2022/03/14 08:59:35;;;;;;;45.67;14.50;;;;;;;8.39;100.00;98904.31;5002686;28;20455;-54
2022/03/14 09:02:01;;;;;;;47.58;14.35;;;;;;;8.23;100.00;98913.25;5000125;28;20084;-54
2022/03/14 09:04:26;;;;;;;42.13;14.55;;;;;;;8.16;100.00;98915.13;5001749;28;20036;-54
2022/03/14 09:06:51;;;;;;;43.92;15.10;;;;;;;8.25;100.00;98911.47;4999106;28;20049;-55
2022/03/14 09:09:18;;;;;;;51.92;15.45;;;;;;;8.59;100.00;98906.56;4998892;28;20600;-54
2022/03/14 09:11:44;;;;;;;44.28;15.05;;;;;;;8.72;100.00;98907.22;5001120;28;20045;-54
2022/03/14 09:14:10;;;;;;;47.30;15.13;;;;;;;8.72;100.00;98912.41;5000271;28;20122;-54
2022/03/14 09:16:35;;;;;;;43.00;13.40;;;;;;;8.79;100.00;98923.56;4999582;28;20158;-54
2022/03/14 09:19:01;;;;;;;51.08;15.60;;;;;;;8.52;100.00;98936.19;4998814;28;20492;-54
2022/03/14 09:21:27;;;;;;;42.97;14.52;;;;;;;8.93;100.00;98925.88;4998984;28;20496;-54
2022/03/14 09:23:53;;;;;;;40.38;14.85;;;;;;;8.84;100.00;98929.50;5004763;28;20033;-54
2022/03/14 09:26:18;;;;;;;42.28;14.32;;;;;;;9.18;100.00;98931.47;4998565;28;20412;-55
2022/03/14 09:28:44;;;;;;;41.45;14.77;;;;;;;8.68;100.00;98927.22;5000010;28;20040;-54
2022/03/14 09:31:13;;;;;;;39.70;13.60;;;;;;;9.54;100.00;98936.78;5004857;28;20025;-54
2022/03/14 09:33:39;;;;;;;38.85;13.05;;;;;;;9.37;100.00;98948.41;5004888;28;20031;-53
2022/03/14 09:36:05;;;;;;;36.50;13.10;;;;;;;9.33;100.00;98946.75;5003859;28;20034;-53
2022/03/14 09:38:31;;;;;;;40.28;13.27;;;;;;;9.82;100.00;98945.69;5006600;28;20069;-53
2022/03/14 09:41:03;;;;;;;41.45;14.13;;;;;;;10.02;100.00;98941.78;5002584;28;20129;-54
2022/03/14 09:43:31;;;;;;;35.40;11.68;;;;;;;10.47;100.00;98946.78;5003611;28;20090;-55
2022/03/14 09:45:59;;;;;;;32.75;11.57;;;;;;;10.14;100.00;98949.28;5003524;28;20118;-54
2022/03/14 09:48:25;;;;;;;34.38;11.68;;;;;;;9.88;100.00;98949.06;5002356;28;20112;-55
2022/03/14 09:50:52;;;;;;;30.17;8.38;;;;;;;10.61;100.00;98962.94;5004095;28;20033;-54
2022/03/14 09:53:18;;;;;;;33.08;10.10;;;;;;;9.66;100.00;98959.94;5005117;28;20029;-54
2022/03/14 09:55:46;;;;;;;36.17;8.50;;;;;;;10.21;100.00;98978.69;5004337;28;20034;-54
2022/03/14 09:58:18;;;;;;;26.50;8.80;;;;;;;9.97;100.00;98967.09;5006860;28;20063;-54
2022/03/14 10:00:44;;;;;;;41.08;9.07;;;;;;;10.26;100.00;98978.59;5003024;28;20037;-54
2022/03/14 10:03:10;;;;;;;26.55;8.30;;;;;;;10.56;100.00;98969.19;5005447;28;20443;-54
2022/03/14 10:05:35;;;;;;;26.88;7.95;;;;;;;11.19;100.00;98975.31;4998032;28;20068;-55
2022/03/14 10:08:01;;;;;;;34.15;8.57;;;;;;;11.18;100.00;98976.22;5002965;28;20462;-54
2022/03/14 10:10:27;;;;;;;27.38;7.85;;;;;;;11.25;100.00;98969.06;5001978;28;20724;-54
2022/03/14 10:12:53;;;;;;;33.35;7.93;;;;;;;11.27;100.00;98969.91;5004301;28;20101;-55
2022/03/14 10:15:21;;;;;;;27.67;7.60;;;;;;;11.33;100.00;98982.78;5004458;28;20060;-55
2022/03/14 10:17:46;;;;;;;25.20;6.72;;;;;;;11.10;100.00;98971.22;5003878;28;20025;-55
2022/03/14 10:20:15;;;;;;;23.73;6.13;;;;;;;11.17;100.00;98977.13;5002550;28;20022;-55
2022/03/14 10:22:42;;;;;;;24.08;6.07;;;;;;;11.15;100.00;98978.91;5005090;28;20034;-53
2022/03/14 10:25:16;;;;;;;30.08;6.28;;;;;;;12.22;100.00;98988.00;4999352;28;20506;-55
2022/03/14 10:27:47;;;;;;;21.13;5.28;;;;;;;11.80;100.00;98983.16;5004523;28;20076;-54
2022/03/14 10:30:33;;;;;;;18.48;3.97;;;;;;;10.73;100.00;98992.22;5006646;28;20096;-53
2022/03/14 10:33:01;;;;;;;27.38;4.93;;;;;;;10.83;100.00;98987.63;5007677;28;20132;-53
2022/03/14 10:35:31;;;;;;;20.10;4.78;;;;;;;11.35;100.00;98991.44;5006564;28;20188;-53
2022/03/14 10:37:59;;;;;;;24.83;4.90;;;;;;;11.75;100.00;98995.50;5007759;28;20742;-54
2022/03/14 10:40:33;;;;;;;26.70;4.78;;;;;;;11.84;100.00;98999.59;5002122;28;20042;-53
2022/03/14 10:43:00;;;;;;;21.30;4.70;;;;;;;12.73;100.00;99009.84;4999929;28;20056;-55
2022/03/14 10:45:25;;;;;;;24.70;4.97;;;;;;;12.10;100.00;99007.53;4998233;28;20021;-54
2022/03/14 10:47:57;;;;;;;23.70;4.68;;;;;;;12.40;100.00;99014.44;5001891;28;20031;-54
2022/03/14 10:50:37;;;;;;;24.92;5.15;;;;;;;12.72;100.00;99010.78;5004124;28;20099;-54
2022/03/14 10:53:18;;;;;;;26.08;5.25;;;;;;;14.13;100.00;99014.44;5003231;28;20025;-54
2022/03/14 10:55:45;;;;;;;26.08;5.40;;;;;;;14.30;100.00;99017.25;5011089;28;20152;-52
2022/03/14 10:58:11;;;;;;;22.17;5.68;;;;;;;15.25;100.00;99024.72;5002027;28;20488;-53
2022/03/14 11:00:49;;;;;;;22.52;5.20;;;;;;;14.17;100.00;99011.66;5005839;28;20033;-54
2022/03/14 11:03:22;;;;;;;17.23;3.92;;;;;;;13.27;100.00;99029.81;5004267;28;20132;-52
2022/03/14 11:05:47;;;;;;;20.88;4.53;;;;;;;13.80;100.00;99027.94;5001046;28;20408;-53
2022/03/14 11:08:30;;;;;;;19.58;4.72;;;;;;;14.09;100.00;99032.06;5001783;28;20640;-53
2022/03/14 11:10:57;;;;;;;18.70;4.43;;;;;;;14.02;100.00;99022.72;5005472;28;20702;-53
2022/03/14 11:13:23;;;;;;;18.13;4.40;;;;;;;13.62;100.00;99025.09;5000831;28;20770;-53
2022/03/14 11:15:49;;;;;;;19.88;4.38;;;;;;;12.60;100.00;99029.50;4999774;28;20065;-53
2022/03/14 11:18:17;;;;;;;22.15;4.60;;;;;;;12.88;100.00;99016.34;5002413;28;20050;-52
2022/03/14 11:20:43;;;;;;;25.80;4.88;;;;;;;13.46;100.00;99029.19;5001466;28;20046;-52